createdAt,value
2023-11-15T00:00:37.270Z,-73
2023-11-15T00:03:05.060Z,-73
2023-11-15T00:05:34.565Z,-72
2023-11-15T00:08:01.617Z,-74
2023-11-15T00:10:29.099Z,-73
2023-11-15T00:12:56.134Z,-73
2023-11-15T00:15:23.360Z,-73
2023-11-15T00:17:50.609Z,-73
2023-11-15T00:20:17.919Z,-73
2023-11-15T00:22:45.147Z,-73
2023-11-15T00:25:12.681Z,-73
2023-11-15T00:27:40.716Z,-72
2023-11-15T00:30:12.200Z,-73
2023-11-15T00:32:39.448Z,-72
2023-11-15T00:35:08.384Z,-73
2023-11-15T00:37:36.929Z,-74
2023-11-15T00:40:05.628Z,-73
2023-11-15T00:42:32.810Z,-73
2023-11-15T00:44:59.910Z,-73
2023-11-15T00:47:27.998Z,-72
2023-11-15T00:49:55.081Z,-73
2023-11-15T00:52:22.116Z,-73
2023-11-15T00:54:49.157Z,-72
2023-11-15T00:57:16.292Z,-72
2023-11-15T00:59:48.896Z,-74
2023-11-15T01:02:18.260Z,-72
2023-11-15T01:04:45.338Z,-73
2023-11-15T01:07:12.350Z,-73
2023-11-15T01:09:39.468Z,-72
2023-11-15T01:12:06.989Z,-73
2023-11-15T01:14:35.007Z,-73
2023-11-15T01:17:02.277Z,-73
2023-11-15T01:19:30.577Z,-72
2023-11-15T01:21:59.327Z,-73
2023-11-15T01:24:27.447Z,-72
2023-11-15T01:26:54.582Z,-73
2023-11-15T01:29:21.691Z,-72
2023-11-15T01:31:48.847Z,-72
2023-11-15T01:34:18.468Z,-72
2023-11-15T01:36:48.511Z,-73
2023-11-15T01:39:18.666Z,-73
2023-11-15T01:41:50.187Z,-72
2023-11-15T01:44:19.519Z,-72
2023-11-15T01:46:51.558Z,-72
2023-11-15T01:49:22.349Z,-72
2023-11-15T01:51:52.479Z,-73
2023-11-15T01:54:21.593Z,-73
2023-11-15T01:56:49.122Z,-72
2023-11-15T01:59:17.269Z,-73
2023-11-15T02:01:44.478Z,-72
2023-11-15T02:04:11.656Z,-73
2023-11-15T02:06:38.912Z,-73
2023-11-15T02:09:11.784Z,-73
2023-11-15T02:11:40.346Z,-73
2023-11-15T02:14:07.502Z,-73
2023-11-15T02:16:34.740Z,-74
2023-11-15T02:19:01.888Z,-72
2023-11-15T02:21:28.969Z,-71
2023-11-15T02:23:56.875Z,-72
2023-11-15T02:26:23.950Z,-72
2023-11-15T02:28:51.672Z,-73
2023-11-15T02:31:18.816Z,-74
2023-11-15T02:33:46.538Z,-73
2023-11-15T02:36:14.022Z,-74
2023-11-15T02:38:41.592Z,-73
2023-11-15T02:41:10.970Z,-74
2023-11-15T02:43:38.526Z,-72
2023-11-15T02:46:05.736Z,-72
2023-11-15T02:48:33.852Z,-73
2023-11-15T02:51:01.219Z,-73
2023-11-15T02:53:28.400Z,-73
2023-11-15T02:55:55.540Z,-73
2023-11-15T02:58:22.589Z,-73
2023-11-15T03:00:49.793Z,-72
2023-11-15T03:03:20.162Z,-73
2023-11-15T03:05:47.902Z,-72
2023-11-15T03:08:17.480Z,-72
2023-11-15T03:10:45.845Z,-73
2023-11-15T03:13:13.391Z,-73
2023-11-15T03:15:40.512Z,-75
2023-11-15T03:18:08.873Z,-72
2023-11-15T03:20:36.395Z,-71
2023-11-15T03:23:03.462Z,-72
2023-11-15T03:25:30.566Z,-72
2023-11-15T03:27:58.200Z,-73
2023-11-15T03:30:27.543Z,-73
2023-11-15T03:32:56.716Z,-72
2023-11-15T03:35:24.234Z,-74
2023-11-15T03:37:53.490Z,-72
2023-11-15T03:40:23.664Z,-73
2023-11-15T03:42:52.116Z,-73
2023-11-15T03:45:19.216Z,-73
2023-11-15T03:47:50.230Z,-73
2023-11-15T03:50:17.536Z,-73
2023-11-15T03:52:44.637Z,-72
2023-11-15T03:55:11.807Z,-73
2023-11-15T03:57:38.874Z,-73
2023-11-15T04:00:07.818Z,-72
2023-11-15T04:02:35.008Z,-72
2023-11-15T04:05:02.236Z,-73
2023-11-15T04:07:31.890Z,-73
2023-11-15T04:10:00.984Z,-72
2023-11-15T04:12:28.123Z,-72
2023-11-15T04:15:08.169Z,-72
2023-11-15T04:17:37.990Z,-73
2023-11-15T04:20:13.060Z,-73
2023-11-15T04:22:40.126Z,-73
2023-11-15T04:25:07.641Z,-73
2023-11-15T04:27:34.729Z,-72
2023-11-15T04:30:02.252Z,-72
2023-11-15T04:32:29.374Z,-73
2023-11-15T04:34:56.499Z,-72
2023-11-15T04:37:23.613Z,-73
2023-11-15T04:39:50.706Z,-73
2023-11-15T04:42:20.457Z,-73
2023-11-15T04:44:47.820Z,-72
2023-11-15T04:47:15.083Z,-72
2023-11-15T04:49:42.463Z,-72
2023-11-15T04:52:09.659Z,-72
2023-11-15T04:54:36.704Z,-72
2023-11-15T04:57:04.965Z,-72
2023-11-15T04:59:45.504Z,-73
2023-11-15T05:02:13.704Z,-74
2023-11-15T05:04:41.219Z,-72
2023-11-15T05:07:09.216Z,-72
2023-11-15T05:09:43.365Z,-73
2023-11-15T05:12:10.543Z,-73
2023-11-15T05:14:38.327Z,-73
2023-11-15T05:17:05.769Z,-72
2023-11-15T05:19:32.843Z,-72
2023-11-15T05:22:00.439Z,-73
2023-11-15T05:24:35.174Z,-72
2023-11-15T05:27:02.465Z,-73
2023-11-15T05:29:31.648Z,-72
2023-11-15T05:31:59.138Z,-73
2023-11-15T05:34:28.849Z,-72
2023-11-15T05:36:55.955Z,-72
2023-11-15T05:39:29.438Z,-74
2023-11-15T05:41:56.614Z,-72
2023-11-15T05:44:24.867Z,-73
2023-11-15T05:46:52.065Z,-74
2023-11-15T05:49:19.302Z,-73
2023-11-15T05:51:47.280Z,-72
2023-11-15T05:54:19.111Z,-73
2023-11-15T05:56:50.168Z,-73
2023-11-15T05:59:17.829Z,-72
2023-11-15T06:01:45.437Z,-73
2023-11-15T06:04:13.447Z,-73
2023-11-15T06:06:40.532Z,-73
2023-11-15T06:09:07.589Z,-72
2023-11-15T06:11:35.082Z,-73
2023-11-15T06:14:02.107Z,-72
2023-11-15T06:16:32.949Z,-72
2023-11-15T06:19:00.007Z,-73
2023-11-15T06:21:31.653Z,-72
2023-11-15T06:23:58.705Z,-72
2023-11-15T06:26:25.941Z,-73
2023-11-15T06:28:55.235Z,-72
2023-11-15T06:31:22.883Z,-72
2023-11-15T06:33:57.627Z,-72
2023-11-15T06:36:25.097Z,-72
2023-11-15T06:38:52.302Z,-73
2023-11-15T06:41:20.341Z,-72
2023-11-15T06:43:49.012Z,-72
2023-11-15T06:46:22.233Z,-72
2023-11-15T06:48:57.515Z,-72
2023-11-15T06:51:52.683Z,-75
2023-11-15T06:54:21.103Z,-73
2023-11-15T06:56:51.171Z,-73
2023-11-15T06:59:19.303Z,-72
2023-11-15T07:01:49.674Z,-73
2023-11-15T07:04:19.013Z,-73
2023-11-15T07:09:47.355Z,-73
2023-11-15T07:12:18.828Z,-72
2023-11-15T07:14:47.215Z,-72
2023-11-15T07:17:16.379Z,-73
2023-11-15T07:19:43.418Z,-73
2023-11-15T07:22:10.809Z,-72
2023-11-15T07:24:42.284Z,-72
2023-11-15T07:27:10.454Z,-72
2023-11-15T07:29:39.289Z,-72
2023-11-15T07:32:09.138Z,-72
2023-11-15T07:34:37.725Z,-72
2023-11-15T07:37:05.620Z,-73
2023-11-15T07:39:32.740Z,-75
2023-11-15T07:42:00.962Z,-71
2023-11-15T07:44:32.221Z,-72
2023-11-15T07:47:00.843Z,-72
2023-11-15T07:49:30.357Z,-72
2023-11-15T07:52:18.342Z,-76
2023-11-15T07:54:45.838Z,-72
2023-11-15T07:57:23.102Z,-76
2023-11-15T07:59:50.197Z,-72
2023-11-15T08:02:18.748Z,-73
2023-11-15T08:04:46.194Z,-72
2023-11-15T08:07:13.320Z,-73
2023-11-15T08:09:44.138Z,-72
2023-11-15T08:12:11.306Z,-72
2023-11-15T08:14:38.639Z,-73
2023-11-15T08:17:05.875Z,-73
2023-11-15T08:19:32.971Z,-73
2023-11-15T08:21:59.963Z,-73
2023-11-15T08:24:31.092Z,-73
2023-11-15T08:26:59.747Z,-73
2023-11-15T08:29:26.918Z,-73
2023-11-15T08:31:54.084Z,-73
2023-11-15T08:34:23.937Z,-76
2023-11-15T08:36:58.483Z,-73
2023-11-15T08:39:25.755Z,-73
2023-11-15T08:41:54.256Z,-73
2023-11-15T08:44:21.347Z,-73
2023-11-15T08:46:49.589Z,-72
2023-11-15T08:49:17.644Z,-73
2023-11-15T08:52:03.152Z,-73
2023-11-15T08:54:32.757Z,-72
2023-11-15T08:56:59.795Z,-73
2023-11-15T08:59:31.739Z,-73
2023-11-15T09:02:02.672Z,-73
2023-11-15T09:04:37.958Z,-73
2023-11-15T09:07:20.123Z,-73
2023-11-15T09:09:48.908Z,-73
2023-11-15T09:12:24.976Z,-73
2023-11-15T09:14:54.294Z,-72
2023-11-15T09:17:22.524Z,-72
2023-11-15T09:19:51.228Z,-73
2023-11-15T09:22:19.756Z,-72
2023-11-15T09:24:49.416Z,-72
2023-11-15T09:27:18.480Z,-73
2023-11-15T09:29:47.693Z,-72
2023-11-15T09:32:15.205Z,-73
2023-11-15T09:34:43.376Z,-73
2023-11-15T09:37:11.352Z,-74
2023-11-15T09:39:42.862Z,-73
2023-11-15T09:42:12.305Z,-72
2023-11-15T09:44:45.534Z,-73
2023-11-15T09:47:15.472Z,-73
2023-11-15T09:49:56.467Z,-72
2023-11-15T09:55:03.611Z,-72
2023-11-15T09:57:30.847Z,-72
2023-11-15T10:00:05.518Z,-73
2023-11-15T10:02:42.267Z,-73
2023-11-15T10:05:20.162Z,-72
2023-11-15T10:07:53.798Z,-73
2023-11-15T10:10:26.090Z,-73
2023-11-15T10:12:56.354Z,-73
2023-11-15T10:15:35.560Z,-72
2023-11-15T10:18:02.755Z,-72
2023-11-15T10:20:30.118Z,-72
2023-11-15T10:22:59.079Z,-73
2023-11-15T10:25:28.817Z,-73
2023-11-15T10:28:11.428Z,-73
2023-11-15T10:30:41.712Z,-73
2023-11-15T10:33:12.367Z,-73
2023-11-15T10:35:40.320Z,-73
2023-11-15T10:38:16.415Z,-73
2023-11-15T10:40:45.301Z,-73
2023-11-15T10:43:17.940Z,-73
2023-11-15T10:45:49.268Z,-72
2023-11-15T10:48:23.541Z,-73
2023-11-15T10:50:59.903Z,-72
2023-11-15T10:53:30.033Z,-74
2023-11-15T10:56:00.451Z,-72
2023-11-15T10:58:31.601Z,-74
2023-11-15T11:00:59.749Z,-74
2023-11-15T11:03:29.925Z,-74
2023-11-15T11:06:41.192Z,-75
2023-11-15T11:09:27.408Z,-74
2023-11-15T11:12:07.400Z,-73
2023-11-15T11:14:38.149Z,-74
2023-11-15T11:17:39.115Z,-74
2023-11-15T11:20:26.843Z,-74
2023-11-15T11:23:18.586Z,-74
2023-11-15T11:25:48.727Z,-74
2023-11-15T11:28:19.996Z,-74
2023-11-15T11:31:19.579Z,-74
2023-11-15T11:34:16.347Z,-74
2023-11-15T11:37:00.160Z,-73
2023-11-15T11:39:45.815Z,-74
2023-11-15T11:42:28.918Z,-74
2023-11-15T11:44:56.744Z,-73
2023-11-15T11:47:24.849Z,-73
2023-11-15T11:49:53.848Z,-74
2023-11-15T11:52:21.403Z,-73
2023-11-15T11:54:53.393Z,-74
2023-11-15T11:57:23.193Z,-74
2023-11-15T12:00:23.561Z,-74
2023-11-15T12:03:01.216Z,-74
2023-11-15T12:05:35.933Z,-74
2023-11-15T12:08:04.543Z,-74
2023-11-15T12:10:31.835Z,-74
2023-11-15T12:13:03.000Z,-74
2023-11-15T12:15:30.505Z,-73
2023-11-15T12:18:01.777Z,-73
2023-11-15T12:20:40.148Z,-73
2023-11-15T12:23:11.920Z,-74
2023-11-15T12:25:54.617Z,-74
2023-11-15T12:28:40.878Z,-73
2023-11-15T12:31:10.027Z,-74
2023-11-15T12:33:37.710Z,-74
2023-11-15T12:36:08.352Z,-74
2023-11-15T12:38:35.949Z,-74
2023-11-15T12:41:07.736Z,-76
2023-11-15T12:43:35.424Z,-75
2023-11-15T12:46:19.844Z,-74
2023-11-15T12:48:49.384Z,-74
2023-11-15T12:51:16.941Z,-74
2023-11-15T12:53:44.273Z,-75
2023-11-15T12:56:20.838Z,-74
2023-11-15T12:58:49.696Z,-74
2023-11-15T13:01:20.096Z,-74
2023-11-15T13:03:57.113Z,-74
2023-11-15T13:06:29.270Z,-74
2023-11-15T13:08:59.493Z,-74
2023-11-15T13:11:26.561Z,-74
2023-11-15T13:13:55.476Z,-74
2023-11-15T13:16:25.651Z,-74
2023-11-15T13:18:52.884Z,-74
2023-11-15T13:21:25.208Z,-72
2023-11-15T13:23:53.839Z,-72
2023-11-15T13:26:22.502Z,-72
2023-11-15T13:28:50.892Z,-72
2023-11-15T13:31:25.704Z,-76
2023-11-15T13:33:57.403Z,-72
2023-11-15T13:36:27.043Z,-72
2023-11-15T13:38:54.427Z,-72
2023-11-15T13:41:25.119Z,-73
2023-11-15T13:43:54.509Z,-73
2023-11-15T13:46:24.748Z,-73
2023-11-15T13:48:54.183Z,-69
2023-11-15T13:51:23.930Z,-70
2023-11-15T13:53:51.420Z,-69
2023-11-15T13:56:18.810Z,-70
2023-11-15T13:58:45.855Z,-70
2023-11-15T14:01:13.121Z,-70
2023-11-15T14:03:40.977Z,-70
2023-11-15T14:06:08.861Z,-70
2023-11-15T14:08:47.333Z,-70
2023-11-15T14:11:23.851Z,-71
2023-11-15T14:13:51.037Z,-71
2023-11-15T14:16:18.100Z,-71
2023-11-15T14:18:49.080Z,-71
2023-11-15T14:21:16.525Z,-70
2023-11-15T14:23:43.688Z,-70
2023-11-15T14:26:11.162Z,-70
2023-11-15T14:28:38.228Z,-70
2023-11-15T14:31:05.698Z,-71
2023-11-15T14:33:33.232Z,-70
2023-11-15T14:36:00.670Z,-70
2023-11-15T14:38:28.013Z,-70
2023-11-15T14:40:57.028Z,-71
2023-11-15T14:43:24.340Z,-70
2023-11-15T14:45:51.873Z,-71
2023-11-15T14:48:19.452Z,-70
2023-11-15T14:50:47.491Z,-70
2023-11-15T14:53:31.424Z,-70
2023-11-15T14:55:59.875Z,-70
2023-11-15T14:58:27.609Z,-70
2023-11-15T15:00:55.350Z,-70
2023-11-15T15:03:24.279Z,-71
2023-11-15T15:05:53.185Z,-70
2023-11-15T15:08:23.178Z,-71
2023-11-15T15:10:56.267Z,-71
2023-11-15T15:13:23.432Z,-70
2023-11-15T15:15:50.747Z,-70
2023-11-15T15:18:22.278Z,-70
2023-11-15T15:20:56.797Z,-70
2023-11-15T15:23:23.873Z,-70
2023-11-15T15:25:51.057Z,-70
2023-11-15T15:28:18.327Z,-70
2023-11-15T15:30:45.518Z,-70
2023-11-15T15:33:12.629Z,-70
2023-11-15T15:35:39.825Z,-70
2023-11-15T15:38:09.575Z,-70
2023-11-15T15:40:40.173Z,-70
2023-11-15T15:43:07.426Z,-70
2023-11-15T15:45:34.442Z,-70
2023-11-15T15:48:01.848Z,-71
2023-11-15T15:50:29.022Z,-70
2023-11-15T15:52:56.687Z,-70
2023-11-15T15:55:24.085Z,-70
2023-11-15T15:57:51.311Z,-70
2023-11-15T16:00:19.472Z,-70
2023-11-15T16:02:48.246Z,-71
2023-11-15T16:05:17.823Z,-70
2023-11-15T16:07:48.141Z,-70
2023-11-15T16:10:15.701Z,-71
2023-11-15T16:12:42.736Z,-70
2023-11-15T16:15:18.186Z,-70
2023-11-15T16:17:46.040Z,-70
2023-11-15T16:20:13.658Z,-71
2023-11-15T16:22:41.141Z,-74
2023-11-15T16:25:08.681Z,-70
2023-11-15T16:27:37.871Z,-70
2023-11-15T16:30:11.092Z,-70
2023-11-15T16:32:38.362Z,-70
2023-11-15T16:35:09.702Z,-70
2023-11-15T16:37:40.057Z,-70
2023-11-15T16:40:11.847Z,-70
2023-11-15T16:42:40.570Z,-71
2023-11-15T16:45:09.403Z,-69
2023-11-15T16:47:37.490Z,-69
2023-11-15T16:50:05.531Z,-73
2023-11-15T16:52:34.651Z,-69
2023-11-15T16:55:07.168Z,-68
2023-11-15T16:57:34.503Z,-68
2023-11-15T17:00:01.832Z,-68
2023-11-15T17:02:29.396Z,-69
2023-11-15T17:04:56.614Z,-69
2023-11-15T17:07:23.885Z,-68
2023-11-15T17:09:53.103Z,-69
2023-11-15T17:12:20.458Z,-68
2023-11-15T17:14:47.782Z,-68
2023-11-15T17:17:17.237Z,-69
2023-11-15T17:19:45.775Z,-69
2023-11-15T17:22:14.630Z,-69
2023-11-15T17:24:41.821Z,-69
2023-11-15T17:27:10.122Z,-68
2023-11-15T17:29:37.666Z,-68
2023-11-15T17:32:06.620Z,-69
2023-11-15T17:34:34.069Z,-70
2023-11-15T17:37:02.119Z,-69
2023-11-15T17:39:30.436Z,-69
2023-11-15T17:41:57.874Z,-69
2023-11-15T17:44:25.276Z,-70
2023-11-15T17:46:53.871Z,-68
2023-11-15T17:49:21.867Z,-69
2023-11-15T17:51:50.278Z,-69
2023-11-15T17:54:19.947Z,-69
2023-11-15T17:56:47.293Z,-69
2023-11-15T17:59:15.227Z,-68
2023-11-15T18:01:42.367Z,-69
2023-11-15T18:04:11.016Z,-69
2023-11-15T18:06:38.643Z,-69
2023-11-15T18:09:08.763Z,-69
2023-11-15T18:11:36.485Z,-69
2023-11-15T18:14:03.665Z,-69
2023-11-15T18:16:31.899Z,-69
2023-11-15T18:19:06.306Z,-69
2023-11-15T18:21:34.235Z,-69
2023-11-15T18:24:02.990Z,-69
2023-11-15T18:26:34.087Z,-70
2023-11-15T18:29:02.270Z,-69
2023-11-15T18:31:30.052Z,-69
2023-11-15T18:33:59.634Z,-68
2023-11-15T18:36:27.297Z,-69
2023-11-15T18:38:55.120Z,-69
2023-11-15T18:41:22.597Z,-70
2023-11-15T18:43:50.547Z,-68
2023-11-15T18:46:18.043Z,-68
2023-11-15T18:48:45.548Z,-68
2023-11-15T18:51:13.443Z,-68
2023-11-15T18:53:40.998Z,-68
2023-11-15T18:56:08.958Z,-68
2023-11-15T18:58:37.409Z,-69
2023-11-15T19:01:05.138Z,-68
2023-11-15T19:03:32.366Z,-68
2023-11-15T19:06:00.008Z,-68
2023-11-15T19:08:27.180Z,-68
2023-11-15T19:10:56.321Z,-69
2023-11-15T19:13:26.453Z,-69
2023-11-15T19:15:54.891Z,-69
2023-11-15T19:18:22.404Z,-69
2023-11-15T19:20:50.317Z,-72
2023-11-15T19:23:19.020Z,-68
2023-11-15T19:25:47.149Z,-68
2023-11-15T19:28:17.157Z,-69
2023-11-15T19:30:45.857Z,-69
2023-11-15T19:33:14.088Z,-69
2023-11-15T19:35:42.058Z,-73
2023-11-15T19:38:09.209Z,-68
2023-11-15T19:40:36.612Z,-69
2023-11-15T19:43:03.933Z,-69
2023-11-15T19:45:32.604Z,-68
2023-11-15T19:48:00.368Z,-68
2023-11-15T19:50:27.890Z,-69
2023-11-15T19:52:55.823Z,-72
2023-11-15T19:55:23.603Z,-68
2023-11-15T19:57:51.328Z,-69
2023-11-15T20:00:19.179Z,-68
2023-11-15T20:02:48.437Z,-70
2023-11-15T20:05:16.761Z,-68
2023-11-15T20:07:44.598Z,-69
2023-11-15T20:10:11.876Z,-69
2023-11-15T20:12:41.757Z,-74
2023-11-15T20:15:11.910Z,-68
2023-11-15T20:17:39.603Z,-69
2023-11-15T20:20:08.738Z,-69
2023-11-15T20:22:45.362Z,-69
2023-11-15T20:25:20.077Z,-69
2023-11-15T20:27:47.651Z,-69
2023-11-15T20:30:16.476Z,-69
2023-11-15T20:32:44.432Z,-71
2023-11-15T20:35:12.263Z,-69
2023-11-15T20:37:39.855Z,-69
2023-11-15T20:40:09.730Z,-68
2023-11-15T20:42:36.932Z,-69
2023-11-15T20:45:04.626Z,-69
2023-11-15T20:47:33.727Z,-69
2023-11-15T20:50:01.031Z,-68
2023-11-15T20:52:28.221Z,-69
2023-11-15T20:54:55.559Z,-70
2023-11-15T20:57:24.330Z,-68
2023-11-15T20:59:53.713Z,-70
2023-11-15T21:02:20.952Z,-70
2023-11-15T21:04:48.194Z,-71
2023-11-15T21:07:17.063Z,-68
2023-11-15T21:09:44.305Z,-68
2023-11-15T21:12:12.172Z,-69
2023-11-15T21:14:40.259Z,-72
2023-11-15T21:17:07.372Z,-68
2023-11-15T21:19:34.729Z,-69
2023-11-15T21:22:01.864Z,-70
2023-11-15T21:24:31.835Z,-68
2023-11-15T21:26:59.628Z,-68
2023-11-15T21:29:27.237Z,-68
2023-11-15T21:31:57.222Z,-71
2023-11-15T21:34:24.526Z,-72
2023-11-15T21:36:51.877Z,-68
2023-11-15T21:39:19.702Z,-68
2023-11-15T21:41:48.215Z,-69
2023-11-15T21:44:18.206Z,-70
2023-11-15T21:46:45.461Z,-69
2023-11-15T21:49:12.929Z,-70
2023-11-15T21:51:40.916Z,-69
2023-11-15T21:54:08.820Z,-69
2023-11-15T21:56:35.925Z,-70
2023-11-15T21:59:03.464Z,-69
2023-11-15T22:01:31.584Z,-69
2023-11-15T22:03:58.942Z,-69
2023-11-15T22:06:27.883Z,-69
2023-11-15T22:08:56.130Z,-69
2023-11-15T22:11:23.772Z,-69
2023-11-15T22:13:50.756Z,-68
2023-11-15T22:16:18.360Z,-68
2023-11-15T22:18:46.396Z,-68
2023-11-15T22:21:13.597Z,-68
2023-11-15T22:23:41.499Z,-68
2023-11-15T22:26:09.126Z,-68
2023-11-15T22:28:36.512Z,-69
2023-11-15T22:31:04.698Z,-69
2023-11-15T22:33:31.799Z,-69
2023-11-15T22:36:00.067Z,-68
2023-11-15T22:38:27.320Z,-69
2023-11-15T22:40:54.878Z,-68
2023-11-15T22:43:22.753Z,-68
2023-11-15T22:45:49.889Z,-68
2023-11-15T22:48:17.458Z,-68
2023-11-15T22:50:45.140Z,-68
2023-11-15T22:53:12.679Z,-69
2023-11-15T22:55:39.854Z,-68
2023-11-15T22:58:06.863Z,-69
2023-11-15T23:00:34.766Z,-68
2023-11-15T23:03:12.607Z,-68
2023-11-15T23:05:42.333Z,-68
2023-11-15T23:08:12.272Z,-69
2023-11-15T23:10:44.087Z,-69
2023-11-15T23:13:11.567Z,-69
2023-11-15T23:15:39.682Z,-68
2023-11-15T23:18:06.978Z,-69
2023-11-15T23:20:39.782Z,-68
2023-11-15T23:23:08.798Z,-69
2023-11-15T23:25:36.221Z,-68
2023-11-15T23:28:05.716Z,-69
2023-11-15T23:30:33.099Z,-69
2023-11-15T23:33:00.333Z,-68
2023-11-15T23:35:28.362Z,-68
2023-11-15T23:37:59.223Z,-68
2023-11-15T23:40:26.889Z,-68
2023-11-15T23:42:55.620Z,-69
2023-11-15T23:45:25.915Z,-72
2023-11-15T23:47:54.109Z,-70
2023-11-15T23:50:25.258Z,-68
2023-11-15T23:52:53.764Z,-69
2023-11-15T23:55:22.992Z,-69
2023-11-15T23:57:50.854Z,-69
